createdAt,value
2022-12-17T00:00:03.132Z,25.20
2022-12-17T00:00:13.037Z,24.70
2022-12-17T00:00:27.589Z,24.00
2022-12-17T00:00:33.011Z,24.10
2022-12-17T00:00:43.029Z,23.70
2022-12-17T00:00:52.907Z,24.20
2022-12-17T00:01:03.073Z,23.50
2022-12-17T00:01:12.893Z,24.10
2022-12-17T00:01:23.084Z,23.80
2022-12-17T00:01:32.951Z,25.00
2022-12-17T00:01:42.795Z,24.40
2022-12-17T00:01:52.841Z,24.10
2022-12-17T00:02:02.931Z,24.20
2022-12-17T00:02:13.603Z,25.60
2022-12-17T00:02:23.006Z,26.30
2022-12-17T00:02:33.086Z,27.70
2022-12-17T00:02:43.047Z,25.30
2022-12-17T00:02:53.023Z,26.00
2022-12-17T00:03:02.963Z,24.10
2022-12-17T00:03:13.232Z,25.80
2022-12-17T00:03:22.916Z,25.70
2022-12-17T00:03:33.153Z,25.90
2022-12-17T00:03:43.298Z,24.80
2022-12-17T00:03:53.088Z,24.30
2022-12-17T00:04:03.143Z,24.30
2022-12-17T00:04:13.104Z,24.40
2022-12-17T00:04:22.995Z,24.20
2022-12-17T00:04:32.809Z,23.70
2022-12-17T00:04:43.072Z,24.10
2022-12-17T00:04:52.834Z,24.90
2022-12-17T00:05:03.097Z,25.10
2022-12-17T00:05:12.787Z,26.40
2022-12-17T00:05:22.991Z,26.10
2022-12-17T00:05:33.099Z,26.20
2022-12-17T00:05:42.823Z,25.90
2022-12-17T00:05:53.075Z,25.20
2022-12-17T00:06:02.819Z,25.40
2022-12-17T00:06:12.814Z,23.80
2022-12-17T00:06:23.034Z,23.60
2022-12-17T00:06:32.834Z,23.80
2022-12-17T00:06:42.905Z,24.40
2022-12-17T00:06:53.079Z,24.40
2022-12-17T00:07:03.012Z,23.40
2022-12-17T00:07:12.947Z,23.80
2022-12-17T00:07:23.090Z,23.60
2022-12-17T00:07:33.057Z,25.20
2022-12-17T00:07:42.810Z,26.20
2022-12-17T00:07:52.934Z,25.80
2022-12-17T00:08:02.952Z,25.60
2022-12-17T00:08:12.997Z,24.20
2022-12-17T00:08:22.955Z,25.20
2022-12-17T00:08:32.926Z,25.90
2022-12-17T00:08:42.947Z,26.30
2022-12-17T00:08:52.791Z,26.90
2022-12-17T00:09:02.933Z,25.40
2022-12-17T00:09:12.821Z,25.00
2022-12-17T00:09:23.065Z,24.10
2022-12-17T00:09:33.061Z,25.00
2022-12-17T00:09:48.637Z,25.00
2022-12-17T00:09:52.845Z,24.10
2022-12-17T00:10:02.805Z,23.90
2022-12-17T00:10:12.866Z,24.70
2022-12-17T00:10:22.904Z,25.70
2022-12-17T00:10:32.783Z,25.40
2022-12-17T00:10:42.801Z,23.80
2022-12-17T00:10:52.889Z,23.40
2022-12-17T00:11:03.026Z,23.00
2022-12-17T00:11:13.068Z,23.30
2022-12-17T00:11:23.058Z,23.80
2022-12-17T00:11:32.808Z,24.80
2022-12-17T00:11:42.844Z,25.50
2022-12-17T00:11:52.878Z,25.60
2022-12-17T00:12:02.893Z,26.30
2022-12-17T00:12:12.804Z,26.90
2022-12-17T00:12:23.083Z,25.60
2022-12-17T00:12:32.983Z,24.30
2022-12-17T00:12:43.027Z,23.90
2022-12-17T00:12:52.941Z,23.90
2022-12-17T00:13:02.829Z,23.00
2022-12-17T00:13:12.959Z,22.80
2022-12-17T00:13:22.913Z,24.70
2022-12-17T00:13:33.251Z,24.70
2022-12-17T00:13:43.026Z,25.40
2022-12-17T00:13:52.839Z,23.70
2022-12-17T00:14:02.919Z,25.00
2022-12-17T00:14:13.012Z,24.50
2022-12-17T00:14:22.785Z,25.60
2022-12-17T00:14:32.803Z,24.50
2022-12-17T00:14:42.951Z,24.80
2022-12-17T00:14:52.835Z,24.00
2022-12-17T00:15:02.982Z,25.60
2022-12-17T00:15:12.906Z,25.60
2022-12-17T00:15:22.842Z,25.50
2022-12-17T00:15:32.877Z,24.50
2022-12-17T00:15:43.094Z,25.20
2022-12-17T00:15:53.001Z,24.70
2022-12-17T00:16:02.912Z,23.70
2022-12-17T00:16:13.123Z,23.30
2022-12-17T00:16:22.854Z,23.90
2022-12-17T00:16:33.019Z,25.20
2022-12-17T00:16:43.150Z,24.70
2022-12-17T00:16:52.847Z,23.10
2022-12-17T00:17:02.981Z,23.80
2022-12-17T00:17:13.015Z,23.00
2022-12-17T00:17:22.791Z,24.70
2022-12-17T00:17:33.083Z,24.60
2022-12-17T00:17:42.901Z,25.70
2022-12-17T00:17:52.841Z,24.60
2022-12-17T00:18:02.930Z,25.30
2022-12-17T00:18:12.925Z,25.00
2022-12-17T00:18:22.809Z,25.20
2022-12-17T00:18:33.029Z,23.50
2022-12-17T00:18:42.885Z,23.10
2022-12-17T00:18:52.809Z,23.10
2022-12-17T00:19:02.803Z,23.00
2022-12-17T00:19:12.811Z,23.30
2022-12-17T00:19:22.915Z,24.20
2022-12-17T00:19:33.096Z,26.50
2022-12-17T00:19:42.949Z,26.50
2022-12-17T00:19:52.846Z,25.50
2022-12-17T00:20:02.806Z,24.00
2022-12-17T00:20:12.781Z,24.00
2022-12-17T00:20:22.837Z,24.70
2022-12-17T00:20:32.993Z,23.60
2022-12-17T00:20:42.823Z,23.50
2022-12-17T00:20:52.955Z,22.90
2022-12-17T00:21:03.094Z,24.40
2022-12-17T00:21:13.041Z,23.70
2022-12-17T00:21:23.030Z,24.00
2022-12-17T00:21:32.922Z,23.10
2022-12-17T00:21:42.798Z,24.40
2022-12-17T00:21:53.013Z,24.60
2022-12-17T00:22:03.066Z,24.70
2022-12-17T00:22:12.999Z,24.20
2022-12-17T00:22:23.082Z,24.30
2022-12-17T00:22:33.077Z,24.40
2022-12-17T00:22:43.064Z,24.20
2022-12-17T00:22:53.031Z,23.30
2022-12-17T00:23:02.950Z,23.50
2022-12-17T00:23:13.087Z,23.20
2022-12-17T00:23:22.830Z,23.60
2022-12-17T00:23:32.951Z,23.50
2022-12-17T00:23:43.033Z,24.30
2022-12-17T00:23:53.075Z,24.60
2022-12-17T00:24:02.889Z,24.50
2022-12-17T00:24:12.991Z,24.10
2022-12-17T00:24:23.008Z,24.50
2022-12-17T00:24:32.871Z,24.20
2022-12-17T00:24:43.027Z,24.60
2022-12-17T00:24:52.915Z,25.00
2022-12-17T00:25:03.082Z,25.60
2022-12-17T00:25:12.915Z,25.40
2022-12-17T00:25:22.928Z,24.40
2022-12-17T00:25:32.967Z,24.20
2022-12-17T00:25:44.626Z,23.80
2022-12-17T00:25:53.074Z,25.30
2022-12-17T00:26:02.831Z,24.70
2022-12-17T00:26:12.922Z,25.10
2022-12-17T00:26:23.008Z,23.10
2022-12-17T00:26:33.026Z,23.80
2022-12-17T00:26:42.961Z,23.10
2022-12-17T00:26:52.855Z,23.00
2022-12-17T00:27:02.821Z,23.90
2022-12-17T00:27:12.971Z,24.50
2022-12-17T00:27:22.821Z,24.80
2022-12-17T00:27:33.023Z,22.90
2022-12-17T00:27:42.793Z,22.20
2022-12-17T00:27:52.860Z,22.50
2022-12-17T00:28:02.781Z,22.60
2022-12-17T00:28:12.842Z,24.80
2022-12-17T00:28:23.017Z,26.30
2022-12-17T00:28:33.016Z,26.10
2022-12-17T00:28:43.037Z,24.30
2022-12-17T00:28:52.832Z,22.10
2022-12-17T00:29:03.003Z,22.70
2022-12-17T00:29:12.888Z,22.90
2022-12-17T00:29:23.061Z,22.60
2022-12-17T00:29:32.779Z,22.30
2022-12-17T00:29:42.958Z,22.60
2022-12-17T00:29:52.812Z,22.80
2022-12-17T00:30:02.997Z,23.00
2022-12-17T00:30:12.924Z,23.00
2022-12-17T00:30:22.889Z,23.80
2022-12-17T00:30:33.145Z,24.30
2022-12-17T00:30:43.066Z,23.20
2022-12-17T00:30:52.908Z,23.30
2022-12-17T00:31:03.003Z,22.50
2022-12-17T00:31:13.158Z,23.50
2022-12-17T00:31:23.009Z,24.40
2022-12-17T00:31:32.935Z,25.80
2022-12-17T00:31:42.948Z,25.30
2022-12-17T00:31:53.034Z,25.50
2022-12-17T00:32:02.843Z,24.00
2022-12-17T00:32:12.996Z,23.80
2022-12-17T00:32:22.814Z,22.60
2022-12-17T00:32:32.816Z,22.80
2022-12-17T00:32:42.936Z,23.30
2022-12-17T00:32:53.001Z,24.10
2022-12-17T00:33:03.067Z,24.30
2022-12-17T00:33:12.918Z,24.00
2022-12-17T00:33:22.847Z,23.30
2022-12-17T00:33:33.168Z,23.90
2022-12-17T00:33:42.982Z,25.70
2022-12-17T00:33:52.792Z,24.90
2022-12-17T00:34:03.046Z,24.50
2022-12-17T00:34:12.830Z,22.90
2022-12-17T00:34:23.019Z,23.30
2022-12-17T00:34:33.002Z,23.10
2022-12-17T00:34:42.896Z,23.10
2022-12-17T00:34:53.021Z,23.10
2022-12-17T00:35:02.976Z,22.80
2022-12-17T00:35:12.940Z,22.10
2022-12-17T00:35:22.952Z,21.90
2022-12-17T00:35:32.876Z,22.90
2022-12-17T00:35:42.953Z,23.50
2022-12-17T00:35:52.937Z,23.70
2022-12-17T00:36:02.860Z,22.40
2022-12-17T00:36:13.052Z,22.30
2022-12-17T00:36:22.816Z,23.20
2022-12-17T00:36:33.014Z,24.00
2022-12-17T00:36:43.019Z,23.20
2022-12-17T00:36:53.006Z,22.70
2022-12-17T00:37:03.005Z,21.90
2022-12-17T00:37:13.034Z,22.70
2022-12-17T00:37:22.923Z,23.20
2022-12-17T00:37:32.845Z,23.80
2022-12-17T00:37:42.818Z,23.90
2022-12-17T00:37:53.028Z,23.70
2022-12-17T00:38:02.955Z,23.50
2022-12-17T00:38:12.914Z,24.70
2022-12-17T00:38:22.894Z,25.30
2022-12-17T00:38:32.989Z,25.00
2022-12-17T00:38:42.968Z,24.60
2022-12-17T00:38:52.966Z,22.80
2022-12-17T00:39:03.076Z,23.10
2022-12-17T00:39:13.045Z,21.30
2022-12-17T00:39:23.050Z,22.20
2022-12-17T00:39:32.993Z,22.00
2022-12-17T00:39:42.900Z,22.40
2022-12-17T00:39:58.967Z,22.60
2022-12-17T00:40:03.017Z,23.50
2022-12-17T00:40:12.832Z,23.70
2022-12-17T00:40:22.891Z,24.70
2022-12-17T00:40:32.977Z,24.70
2022-12-17T00:40:42.853Z,24.50
2022-12-17T00:40:52.969Z,23.60
2022-12-17T00:41:02.814Z,23.20
2022-12-17T00:41:12.841Z,24.70
2022-12-17T00:41:22.903Z,25.80
2022-12-17T00:41:32.778Z,26.30
2022-12-17T00:41:42.833Z,25.40
2022-12-17T00:41:52.788Z,23.70
2022-12-17T00:42:03.089Z,23.40
2022-12-17T00:42:12.814Z,23.20
2022-12-17T00:42:22.802Z,24.80
2022-12-17T00:42:32.981Z,25.10
2022-12-17T00:42:42.866Z,26.00
2022-12-17T00:42:52.894Z,24.30
2022-12-17T00:43:02.893Z,23.20
2022-12-17T00:43:12.974Z,23.20
2022-12-17T00:43:22.938Z,22.50
2022-12-17T00:43:32.932Z,23.60
2022-12-17T00:43:43.000Z,23.50
2022-12-17T00:43:52.786Z,25.10
2022-12-17T00:44:02.847Z,24.40
2022-12-17T00:44:12.780Z,23.50
2022-12-17T00:44:22.932Z,23.50
2022-12-17T00:44:32.863Z,22.90
2022-12-17T00:44:42.923Z,23.30
2022-12-17T00:44:53.068Z,22.70
2022-12-17T00:45:02.883Z,24.30
2022-12-17T00:45:12.899Z,23.80
2022-12-17T00:45:22.926Z,23.80
2022-12-17T00:45:32.922Z,23.30
2022-12-17T00:45:42.861Z,23.70
2022-12-17T00:45:52.981Z,24.00
2022-12-17T00:46:02.778Z,24.00
2022-12-17T00:46:12.978Z,23.90
2022-12-17T00:46:23.146Z,23.60
2022-12-17T00:46:33.113Z,23.10
2022-12-17T00:46:43.079Z,22.60
2022-12-17T00:46:53.020Z,23.10
2022-12-17T00:47:03.110Z,24.10
2022-12-17T00:47:12.891Z,24.80
2022-12-17T00:47:22.806Z,24.50
2022-12-17T00:47:32.923Z,24.40
2022-12-17T00:47:42.805Z,24.80
2022-12-17T00:47:53.005Z,25.20
2022-12-17T00:48:02.786Z,25.10
2022-12-17T00:48:12.966Z,26.30
2022-12-17T00:48:22.959Z,25.70
2022-12-17T00:48:33.461Z,25.80
2022-12-17T00:48:42.802Z,24.10
2022-12-17T00:48:52.910Z,24.40
2022-12-17T00:49:03.057Z,23.20
2022-12-17T00:49:12.791Z,23.40
2022-12-17T00:49:22.894Z,23.30
2022-12-17T00:49:32.931Z,22.80
2022-12-17T00:49:43.012Z,23.60
2022-12-17T00:49:53.058Z,24.00
2022-12-17T00:50:02.836Z,25.20
2022-12-17T00:50:13.043Z,24.90
2022-12-17T00:50:22.872Z,23.40
2022-12-17T00:50:32.801Z,22.70
2022-12-17T00:50:42.998Z,22.00
2022-12-17T00:50:52.802Z,23.00
2022-12-17T00:51:02.826Z,23.30
2022-12-17T00:51:12.791Z,23.80
2022-12-17T00:51:22.862Z,25.40
2022-12-17T00:51:32.784Z,25.70
2022-12-17T00:51:42.940Z,26.50
2022-12-17T00:51:52.944Z,24.90
2022-12-17T00:52:02.878Z,25.10
2022-12-17T00:52:12.831Z,22.70
2022-12-17T00:52:22.881Z,22.20
2022-12-17T00:52:33.097Z,22.10
2022-12-17T00:52:42.925Z,23.60
2022-12-17T00:52:52.852Z,23.20
2022-12-17T00:53:03.015Z,23.50
2022-12-17T00:53:12.802Z,23.20
2022-12-17T00:53:23.000Z,24.00
2022-12-17T00:53:33.213Z,24.20
2022-12-17T00:53:42.788Z,24.00
2022-12-17T00:53:53.034Z,24.30
2022-12-17T00:54:02.944Z,24.70
2022-12-17T00:54:12.924Z,24.30
2022-12-17T00:54:22.986Z,23.80
2022-12-17T00:54:32.813Z,23.00
2022-12-17T00:54:43.031Z,23.90
2022-12-17T00:54:52.946Z,23.40
2022-12-17T00:55:03.010Z,23.70
2022-12-17T00:55:12.881Z,23.90
2022-12-17T00:55:22.846Z,24.60
2022-12-17T00:55:32.824Z,25.30
2022-12-17T00:55:43.049Z,24.40
2022-12-17T00:55:52.847Z,24.20
2022-12-17T00:56:02.974Z,24.00
2022-12-17T00:56:12.923Z,25.50
2022-12-17T00:56:23.053Z,25.90
2022-12-17T00:56:32.801Z,24.60
2022-12-17T00:56:42.888Z,23.80
2022-12-17T00:56:53.015Z,23.90
2022-12-17T00:57:03.023Z,25.30
2022-12-17T00:57:13.034Z,25.60
2022-12-17T00:57:22.909Z,26.50
2022-12-17T00:57:33.003Z,25.90
2022-12-17T00:57:43.039Z,25.70
2022-12-17T00:57:53.035Z,23.50
2022-12-17T00:58:02.829Z,23.40
2022-12-17T00:58:12.795Z,23.20
2022-12-17T00:58:22.893Z,25.00
2022-12-17T00:58:32.816Z,25.00
2022-12-17T00:58:43.053Z,25.30
2022-12-17T00:58:52.858Z,24.30
2022-12-17T00:59:03.036Z,24.60
2022-12-17T00:59:12.936Z,25.90
2022-12-17T00:59:22.815Z,25.20
2022-12-17T00:59:33.051Z,24.90
2022-12-17T00:59:43.027Z,23.20
2022-12-17T00:59:52.968Z,23.50
2022-12-17T01:00:02.982Z,24.20
2022-12-17T01:00:12.779Z,24.80
2022-12-17T01:00:22.917Z,25.20
2022-12-17T01:00:32.830Z,25.70
2022-12-17T01:00:43.073Z,25.30
2022-12-17T01:00:52.995Z,25.80
2022-12-17T01:01:02.958Z,24.30
2022-12-17T01:01:12.951Z,24.20
2022-12-17T01:01:23.189Z,23.50
2022-12-17T01:01:33.264Z,24.20
2022-12-17T01:01:43.233Z,24.40
2022-12-17T01:01:52.989Z,25.80
2022-12-17T01:02:03.213Z,25.40
2022-12-17T01:02:13.128Z,25.60
2022-12-17T01:02:23.193Z,24.00
2022-12-17T01:02:33.002Z,23.70
2022-12-17T01:02:43.010Z,23.90
2022-12-17T01:02:53.152Z,24.20
2022-12-17T01:03:03.080Z,25.00
2022-12-17T01:03:12.958Z,24.00
2022-12-17T01:03:22.846Z,23.60
2022-12-17T01:03:33.155Z,23.70
2022-12-17T01:03:43.004Z,23.70
2022-12-17T01:03:52.893Z,24.10
2022-12-17T01:04:02.882Z,24.40
2022-12-17T01:04:13.002Z,24.70
2022-12-17T01:04:22.923Z,27.00
2022-12-17T01:04:33.071Z,27.70
2022-12-17T01:04:42.799Z,27.80
2022-12-17T01:04:53.001Z,26.40
2022-12-17T01:05:02.796Z,25.90
2022-12-17T01:05:13.049Z,28.30
2022-12-17T01:05:23.026Z,28.90
2022-12-17T01:05:32.864Z,29.20
2022-12-17T01:05:42.871Z,29.10
2022-12-17T01:05:53.025Z,26.60
2022-12-17T01:06:02.881Z,26.50
2022-12-17T01:06:12.790Z,25.60
2022-12-17T01:06:22.988Z,25.50
2022-12-17T01:06:32.836Z,25.90
2022-12-17T01:06:42.821Z,25.50
2022-12-17T01:06:52.978Z,26.90
2022-12-17T01:07:02.791Z,27.20
2022-12-17T01:07:13.085Z,28.70
2022-12-17T01:07:23.026Z,27.00
2022-12-17T01:07:32.995Z,26.50
2022-12-17T01:07:42.904Z,25.40
2022-12-17T01:07:53.019Z,26.30
2022-12-17T01:08:02.879Z,26.00
2022-12-17T01:08:12.866Z,26.30
2022-12-17T01:08:22.864Z,27.10
2022-12-17T01:08:32.797Z,26.00
2022-12-17T01:08:42.785Z,26.00
2022-12-17T01:08:52.835Z,24.40
2022-12-17T01:09:02.810Z,25.70
2022-12-17T01:09:12.910Z,25.00
2022-12-17T01:09:22.827Z,25.20
2022-12-17T01:09:32.807Z,23.90
2022-12-17T01:09:42.788Z,24.80
2022-12-17T01:09:52.822Z,24.60
2022-12-17T01:10:03.076Z,25.60
2022-12-17T01:10:12.798Z,24.50
2022-12-17T01:10:22.901Z,25.00
2022-12-17T01:10:32.906Z,24.00
2022-12-17T01:10:42.861Z,25.10
2022-12-17T01:10:53.099Z,24.60
2022-12-17T01:11:03.101Z,24.60
2022-12-17T01:11:12.889Z,23.80
2022-12-17T01:11:22.984Z,23.40
2022-12-17T01:11:33.002Z,23.00
2022-12-17T01:11:42.919Z,22.80
2022-12-17T01:11:52.783Z,23.90
2022-12-17T01:12:02.959Z,24.30
2022-12-17T01:12:13.042Z,24.50
2022-12-17T01:12:22.845Z,24.80
2022-12-17T01:12:33.002Z,25.10
2022-12-17T01:12:42.799Z,26.20
2022-12-17T01:12:52.953Z,26.10
2022-12-17T01:13:02.928Z,25.50
2022-12-17T01:13:12.927Z,25.00
2022-12-17T01:13:23.012Z,24.50
2022-12-17T01:13:33.441Z,25.00
2022-12-17T01:13:42.927Z,24.80
2022-12-17T01:13:53.075Z,24.80
2022-12-17T01:14:02.866Z,26.30
2022-12-17T01:14:13.029Z,26.60
2022-12-17T01:14:22.840Z,26.60
2022-12-17T01:14:33.032Z,26.00
2022-12-17T01:14:43.092Z,26.90
2022-12-17T01:14:52.808Z,27.70
2022-12-17T01:15:02.910Z,26.00
2022-12-17T01:15:13.063Z,24.70
2022-12-17T01:15:23.064Z,25.20
2022-12-17T01:15:32.946Z,26.10
2022-12-17T01:15:43.043Z,26.40
2022-12-17T01:15:53.092Z,25.60
2022-12-17T01:16:03.110Z,24.90
2022-12-17T01:16:12.967Z,24.80
2022-12-17T01:16:23.170Z,24.30
2022-12-17T01:16:33.199Z,24.30
2022-12-17T01:16:43.057Z,24.20
2022-12-17T01:16:52.782Z,25.80
2022-12-17T01:17:03.025Z,26.30
2022-12-17T01:17:13.071Z,26.60
2022-12-17T01:17:22.877Z,24.20
2022-12-17T01:17:33.059Z,24.60
2022-12-17T01:17:42.948Z,24.20
2022-12-17T01:17:53.048Z,23.90
2022-12-17T01:18:02.914Z,23.60
2022-12-17T01:18:13.003Z,24.60
2022-12-17T01:18:23.038Z,26.50
2022-12-17T01:18:33.028Z,25.70
2022-12-17T01:18:42.839Z,25.00
2022-12-17T01:18:52.849Z,24.30
2022-12-17T01:19:03.064Z,25.90
2022-12-17T01:19:13.034Z,26.00
2022-12-17T01:19:23.053Z,24.60
2022-12-17T01:19:32.956Z,23.70
2022-12-17T01:19:42.997Z,24.00
2022-12-17T01:19:52.791Z,24.80
2022-12-17T01:20:03.077Z,25.20
2022-12-17T01:20:13.011Z,24.70
2022-12-17T01:20:22.803Z,24.90
2022-12-17T01:20:32.858Z,26.00
2022-12-17T01:20:42.886Z,25.50
2022-12-17T01:20:53.074Z,24.30
2022-12-17T01:21:02.949Z,24.40
2022-12-17T01:21:12.972Z,24.50
2022-12-17T01:21:22.960Z,23.90
2022-12-17T01:21:32.942Z,24.10
2022-12-17T01:21:42.879Z,24.60
2022-12-17T01:21:53.077Z,25.60
2022-12-17T01:22:03.037Z,25.40
2022-12-17T01:22:12.875Z,25.80
2022-12-17T01:22:23.068Z,25.30
2022-12-17T01:22:32.977Z,25.30
2022-12-17T01:22:42.856Z,26.00
2022-12-17T01:22:52.954Z,26.20
2022-12-17T01:23:02.933Z,25.90
2022-12-17T01:23:12.897Z,24.20
2022-12-17T01:23:22.911Z,24.30
2022-12-17T01:23:33.189Z,24.30
2022-12-17T01:23:43.057Z,25.10
2022-12-17T01:23:52.904Z,24.90
2022-12-17T01:24:02.823Z,24.10
2022-12-17T01:24:12.839Z,24.30
2022-12-17T01:24:23.036Z,24.00
2022-12-17T01:24:33.005Z,25.00
2022-12-17T01:24:42.811Z,25.50
2022-12-17T01:24:52.994Z,25.60
2022-12-17T01:25:02.796Z,25.10
2022-12-17T01:25:12.940Z,23.80
2022-12-17T01:25:22.892Z,23.30
2022-12-17T01:25:33.009Z,24.40
2022-12-17T01:25:42.972Z,25.70
2022-12-17T01:25:52.858Z,25.90
2022-12-17T01:26:02.906Z,25.10
2022-12-17T01:26:13.064Z,25.00
2022-12-17T01:26:22.962Z,25.30
2022-12-17T01:26:32.880Z,25.10
2022-12-17T01:26:42.899Z,24.20
2022-12-17T01:26:52.983Z,24.30
2022-12-17T01:27:02.834Z,25.00
2022-12-17T01:27:12.922Z,26.20
2022-12-17T01:27:22.974Z,25.80
2022-12-17T01:27:33.000Z,25.10
2022-12-17T01:27:43.000Z,24.60
2022-12-17T01:27:53.012Z,24.40
2022-12-17T01:28:02.971Z,23.80
2022-12-17T01:28:12.946Z,23.40
2022-12-17T01:28:22.897Z,24.10
2022-12-17T01:28:32.948Z,24.70
2022-12-17T01:28:43.144Z,26.40
2022-12-17T01:28:52.953Z,25.80
2022-12-17T01:29:02.907Z,25.70
2022-12-17T01:29:13.056Z,24.60
2022-12-17T01:29:23.122Z,24.90
2022-12-17T01:29:32.963Z,24.60
2022-12-17T01:29:42.820Z,24.30
2022-12-17T01:29:53.082Z,24.60
2022-12-17T01:30:02.958Z,25.00
2022-12-17T01:30:12.843Z,23.70
2022-12-17T01:30:22.977Z,22.90
2022-12-17T01:30:32.795Z,22.40
2022-12-17T01:30:42.942Z,23.20
2022-12-17T01:30:53.071Z,23.90
2022-12-17T01:31:02.859Z,23.50
2022-12-17T01:31:13.092Z,22.90
2022-12-17T01:31:23.024Z,23.60
2022-12-17T01:31:35.299Z,24.00
2022-12-17T01:31:42.926Z,24.60
2022-12-17T01:31:52.928Z,23.70
2022-12-17T01:32:03.075Z,23.10
2022-12-17T01:32:13.040Z,22.70
2022-12-17T01:32:22.965Z,23.50
2022-12-17T01:32:32.868Z,23.90
2022-12-17T01:32:43.027Z,23.50
2022-12-17T01:32:53.057Z,23.00
2022-12-17T01:33:02.956Z,25.10
2022-12-17T01:33:12.995Z,26.30
2022-12-17T01:33:22.897Z,26.80
2022-12-17T01:33:33.388Z,25.10
2022-12-17T01:33:42.895Z,24.60
2022-12-17T01:33:52.925Z,23.70
2022-12-17T01:34:02.864Z,23.90
2022-12-17T01:34:12.803Z,24.10
2022-12-17T01:34:22.792Z,24.60
2022-12-17T01:34:33.046Z,25.10
2022-12-17T01:34:42.929Z,24.40
2022-12-17T01:34:52.795Z,24.50
2022-12-17T01:35:03.010Z,23.50
2022-12-17T01:35:13.003Z,25.00
2022-12-17T01:35:23.083Z,24.80
2022-12-17T01:35:32.855Z,26.20
2022-12-17T01:35:42.953Z,26.00
2022-12-17T01:35:53.081Z,26.70
2022-12-17T01:36:02.891Z,25.00
2022-12-17T01:36:12.914Z,26.50
2022-12-17T01:36:22.885Z,26.00
2022-12-17T01:36:32.960Z,26.90
2022-12-17T01:36:42.984Z,24.80
2022-12-17T01:36:53.011Z,23.60
2022-12-17T01:37:02.791Z,22.60
2022-12-17T01:37:12.851Z,22.50
2022-12-17T01:37:23.063Z,22.30
2022-12-17T01:37:32.865Z,23.90
2022-12-17T01:37:42.774Z,25.30
2022-12-17T01:37:52.925Z,26.30
2022-12-17T01:38:02.772Z,24.90
2022-12-17T01:38:12.816Z,24.30
2022-12-17T01:38:23.023Z,24.80
2022-12-17T01:38:32.886Z,24.80
2022-12-17T01:38:43.027Z,24.00
2022-12-17T01:38:53.015Z,24.50
2022-12-17T01:39:02.888Z,25.00
2022-12-17T01:39:12.840Z,25.40
2022-12-17T01:39:22.803Z,24.80
2022-12-17T01:39:32.917Z,25.00
2022-12-17T01:39:42.984Z,25.20
2022-12-17T01:39:52.890Z,24.60
2022-12-17T01:40:02.871Z,24.20
2022-12-17T01:40:12.873Z,24.10
2022-12-17T01:40:22.827Z,24.60
2022-12-17T01:40:32.774Z,24.80
2022-12-17T01:40:43.041Z,24.90
2022-12-17T01:40:52.927Z,24.60
2022-12-17T01:41:02.863Z,23.50
2022-12-17T01:41:12.781Z,22.60
2022-12-17T01:41:22.918Z,21.90
2022-12-17T01:41:32.878Z,22.80
2022-12-17T01:41:42.845Z,24.70
2022-12-17T01:41:52.941Z,26.90
2022-12-17T01:42:03.029Z,26.20
2022-12-17T01:42:12.884Z,24.70
2022-12-17T01:42:22.987Z,24.30
2022-12-17T01:42:32.934Z,24.90
2022-12-17T01:42:43.022Z,25.30
2022-12-17T01:42:52.816Z,24.40
2022-12-17T01:43:02.935Z,24.60
2022-12-17T01:43:12.996Z,25.00
2022-12-17T01:43:22.886Z,25.30
2022-12-17T01:43:33.500Z,24.90
2022-12-17T01:43:43.097Z,24.30
2022-12-17T01:43:52.851Z,24.10
2022-12-17T01:44:02.978Z,24.40
2022-12-17T01:44:12.949Z,25.10
2022-12-17T01:44:22.911Z,26.20
2022-12-17T01:44:33.011Z,26.70
2022-12-17T01:44:43.051Z,26.30
2022-12-17T01:44:53.063Z,24.30
2022-12-17T01:45:02.978Z,22.40
2022-12-17T01:45:12.993Z,22.20
2022-12-17T01:45:22.894Z,22.60
2022-12-17T01:45:33.032Z,23.60
2022-12-17T01:45:43.074Z,23.70
2022-12-17T01:45:52.966Z,24.60
2022-12-17T01:46:02.937Z,25.00
2022-12-17T01:46:13.071Z,25.40
2022-12-17T01:46:22.886Z,25.90
2022-12-17T01:46:33.019Z,26.10
2022-12-17T01:46:43.062Z,25.90
2022-12-17T01:46:53.002Z,25.50
2022-12-17T01:47:02.977Z,24.60
2022-12-17T01:47:12.926Z,24.80
2022-12-17T01:47:22.911Z,25.00
2022-12-17T01:47:32.999Z,25.50
2022-12-17T01:47:42.935Z,25.70
2022-12-17T01:47:52.805Z,24.60
2022-12-17T01:48:02.914Z,24.00
2022-12-17T01:48:12.798Z,23.20
2022-12-17T01:48:23.016Z,23.90
2022-12-17T01:48:32.809Z,24.90
2022-12-17T01:48:42.904Z,26.40
2022-12-17T01:48:52.912Z,26.30
2022-12-17T01:49:02.784Z,26.00
2022-12-17T01:49:12.889Z,25.80
2022-12-17T01:49:22.969Z,26.40
2022-12-17T01:49:32.969Z,26.10
2022-12-17T01:49:42.815Z,25.20
2022-12-17T01:49:52.976Z,25.40
2022-12-17T01:50:02.834Z,26.00
2022-12-17T01:50:12.823Z,25.40
2022-12-17T01:50:22.962Z,24.90
2022-12-17T01:50:33.134Z,24.60
2022-12-17T01:50:42.802Z,24.90
2022-12-17T01:50:52.818Z,26.10
2022-12-17T01:51:03.001Z,25.40
2022-12-17T01:51:13.056Z,25.80
2022-12-17T01:51:22.999Z,24.60
2022-12-17T01:51:32.772Z,23.70
2022-12-17T01:51:43.044Z,24.00
2022-12-17T01:51:52.819Z,24.20
2022-12-17T01:52:02.909Z,25.10
2022-12-17T01:52:12.897Z,23.60
2022-12-17T01:52:22.808Z,23.00
2022-12-17T01:52:32.983Z,23.30
2022-12-17T01:52:42.935Z,26.40
2022-12-17T01:52:52.807Z,26.60
2022-12-17T01:53:02.813Z,26.20
2022-12-17T01:53:12.829Z,24.20
2022-12-17T01:53:23.075Z,25.50
2022-12-17T01:53:33.388Z,25.90
2022-12-17T01:53:42.934Z,26.10
2022-12-17T01:53:52.837Z,26.50
2022-12-17T01:54:02.787Z,25.90
2022-12-17T01:54:13.023Z,25.30
2022-12-17T01:54:22.910Z,24.10
2022-12-17T01:54:32.978Z,25.20
2022-12-17T01:54:42.893Z,26.00
2022-12-17T01:54:52.941Z,25.60
2022-12-17T01:55:03.018Z,25.60
2022-12-17T01:55:12.982Z,24.60
2022-12-17T01:55:22.928Z,26.20
2022-12-17T01:55:33.037Z,25.20
2022-12-17T01:55:43.068Z,25.10
2022-12-17T01:55:52.883Z,24.10
2022-12-17T01:56:02.994Z,24.40
2022-12-17T01:56:12.965Z,24.60
2022-12-17T01:56:22.961Z,25.30
2022-12-17T01:56:33.036Z,26.00
2022-12-17T01:56:43.059Z,26.90
2022-12-17T01:56:52.815Z,26.20
2022-12-17T01:57:02.981Z,24.90
2022-12-17T01:57:12.895Z,24.80
2022-12-17T01:57:22.862Z,25.10
2022-12-17T01:57:32.993Z,26.20
2022-12-17T01:57:42.945Z,26.00
2022-12-17T01:57:52.830Z,25.20
2022-12-17T01:58:03.022Z,25.50
2022-12-17T01:58:12.800Z,26.10
2022-12-17T01:58:22.914Z,25.40
2022-12-17T01:58:32.866Z,24.20
2022-12-17T01:58:42.849Z,23.30
2022-12-17T01:58:53.033Z,23.70
2022-12-17T01:59:03.001Z,24.50
2022-12-17T01:59:12.867Z,24.20
2022-12-17T01:59:22.923Z,24.90
2022-12-17T01:59:32.825Z,25.20
2022-12-17T01:59:42.776Z,24.50
2022-12-17T01:59:53.016Z,24.60
2022-12-17T02:00:02.973Z,24.60
2022-12-17T02:00:12.995Z,25.60
2022-12-17T02:00:23.020Z,24.80
2022-12-17T02:00:33.212Z,25.10
2022-12-17T02:00:42.966Z,25.10
2022-12-17T02:00:53.155Z,25.70
2022-12-17T02:01:02.910Z,24.40
2022-12-17T02:01:13.110Z,24.20
2022-12-17T02:01:22.925Z,23.60
2022-12-17T02:01:33.088Z,23.70
2022-12-17T02:01:43.202Z,23.10
2022-12-17T02:01:53.387Z,22.70
2022-12-17T02:02:03.159Z,21.90
2022-12-17T02:02:13.143Z,22.10
2022-12-17T02:02:23.230Z,22.60
2022-12-17T02:02:32.961Z,24.30
2022-12-17T02:02:42.992Z,24.20
2022-12-17T02:02:53.217Z,25.80
2022-12-17T02:03:03.265Z,25.90
2022-12-17T02:03:13.036Z,26.10
2022-12-17T02:03:22.941Z,24.60
2022-12-17T02:03:33.376Z,24.10
2022-12-17T02:03:42.952Z,23.50
2022-12-17T02:03:52.935Z,23.80
2022-12-17T02:04:02.844Z,24.40
2022-12-17T02:04:12.840Z,25.30
2022-12-17T02:04:22.784Z,26.20
2022-12-17T02:04:32.960Z,25.90
2022-12-17T02:04:42.983Z,24.90
2022-12-17T02:04:52.927Z,24.50
2022-12-17T02:05:02.797Z,24.70
2022-12-17T02:05:13.004Z,24.80
2022-12-17T02:05:22.808Z,25.30
2022-12-17T02:05:32.839Z,24.00
2022-12-17T02:05:42.888Z,25.40
2022-12-17T02:05:52.942Z,23.50
2022-12-17T02:06:02.882Z,24.10
2022-12-17T02:06:12.956Z,24.40
2022-12-17T02:06:23.007Z,24.80
2022-12-17T02:06:32.905Z,25.20
2022-12-17T02:06:43.019Z,25.70
2022-12-17T02:06:52.818Z,25.60
2022-12-17T02:07:03.007Z,25.80
2022-12-17T02:07:13.087Z,24.90
2022-12-17T02:07:23.151Z,24.60
2022-12-17T02:07:32.991Z,25.30
2022-12-17T02:07:42.866Z,24.80
2022-12-17T02:07:53.126Z,25.30
2022-12-17T02:08:02.863Z,25.10
2022-12-17T02:08:12.791Z,25.40
2022-12-17T02:08:22.962Z,25.50
2022-12-17T02:08:32.998Z,26.50
2022-12-17T02:08:43.030Z,26.60